createdAt,value
2022-11-13T00:01:25.972Z,4.68
2022-11-13T00:04:11.338Z,4.78
2022-11-13T00:06:59.386Z,3.72
2022-11-13T00:09:45.824Z,4.50
2022-11-13T00:12:31.845Z,4.90
2022-11-13T00:15:17.689Z,4.45
2022-11-13T00:18:03.700Z,4.32
2022-11-13T00:20:48.939Z,4.80
2022-11-13T00:23:36.013Z,4.57
2022-11-13T00:26:24.499Z,4.78
2022-11-13T00:29:10.325Z,4.18
2022-11-13T00:31:56.233Z,3.65
2022-11-13T00:34:47.707Z,4.03
2022-11-13T00:37:33.903Z,3.92
2022-11-13T00:40:20.122Z,3.95
2022-11-13T00:43:05.955Z,4.70
2022-11-13T00:45:52.184Z,4.00
2022-11-13T00:48:38.115Z,4.45
2022-11-13T00:51:23.845Z,4.03
2022-11-13T00:54:09.302Z,4.55
2022-11-13T00:56:55.380Z,3.80
2022-11-13T00:59:41.104Z,3.95
2022-11-13T01:02:26.529Z,3.88
2022-11-13T01:05:12.129Z,3.92
2022-11-13T01:07:58.214Z,3.97
2022-11-13T01:10:50.400Z,4.32
2022-11-13T01:13:40.834Z,4.25
2022-11-13T01:16:28.000Z,4.28
2022-11-13T01:19:14.029Z,4.22
2022-11-13T01:22:00.039Z,4.32
2022-11-13T01:24:46.478Z,4.63
2022-11-13T01:27:32.456Z,4.53
2022-11-13T01:30:18.265Z,4.07
2022-11-13T01:33:04.298Z,4.25
2022-11-13T01:35:50.137Z,3.83
2022-11-13T01:38:36.984Z,4.60
2022-11-13T01:41:33.605Z,4.25
2022-11-13T01:44:20.239Z,4.00
2022-11-13T01:47:06.089Z,4.25
2022-11-13T01:49:55.201Z,3.90
2022-11-13T01:52:42.167Z,3.00
2022-11-13T01:55:27.641Z,3.55
2022-11-13T01:58:14.789Z,3.67
2022-11-13T02:01:00.774Z,3.70
2022-11-13T02:03:46.784Z,4.25
2022-11-13T02:06:47.492Z,4.07
2022-11-13T02:09:45.044Z,4.15
2022-11-13T02:12:30.863Z,3.80
2022-11-13T02:15:18.930Z,4.60
2022-11-13T02:18:05.009Z,3.53
2022-11-13T02:21:02.214Z,3.60
2022-11-13T02:24:12.627Z,3.30
2022-11-13T02:27:02.499Z,3.50
2022-11-13T02:29:48.297Z,3.70
2022-11-13T02:32:34.194Z,3.85
2022-11-13T02:35:24.530Z,3.85
2022-11-13T02:38:10.193Z,3.42
2022-11-13T02:40:55.565Z,4.03
2022-11-13T02:43:41.521Z,3.67
2022-11-13T02:46:27.606Z,3.90
2022-11-13T02:49:13.485Z,2.45
2022-11-13T02:51:59.505Z,3.88
2022-11-13T02:54:45.421Z,3.95
2022-11-13T02:57:31.409Z,4.03
2022-11-13T03:00:17.726Z,3.75
2022-11-13T03:03:03.339Z,3.70
2022-11-13T03:05:50.178Z,4.68
2022-11-13T03:08:37.027Z,3.58
2022-11-13T03:11:22.995Z,4.65
2022-11-13T03:14:08.929Z,3.50
2022-11-13T03:16:54.463Z,3.97
2022-11-13T03:19:39.824Z,4.95
2022-11-13T03:22:25.978Z,4.55
2022-11-13T03:25:11.353Z,4.55
2022-11-13T03:27:57.844Z,4.22
2022-11-13T03:30:43.787Z,3.58
2022-11-13T03:33:29.969Z,4.50
2022-11-13T03:36:15.655Z,3.90
2022-11-13T03:39:01.113Z,4.22
2022-11-13T03:41:47.450Z,4.40
2022-11-13T03:44:33.335Z,4.53
2022-11-13T03:47:19.162Z,3.97
2022-11-13T03:50:05.005Z,4.30
2022-11-13T03:52:50.671Z,3.43
2022-11-13T03:55:36.237Z,3.78
2022-11-13T03:58:22.251Z,4.70
2022-11-13T04:01:08.144Z,3.63
2022-11-13T04:03:53.753Z,3.90
2022-11-13T04:06:39.950Z,4.18
2022-11-13T04:09:25.626Z,4.60
2022-11-13T04:12:11.945Z,3.67
2022-11-13T04:14:57.821Z,3.35
2022-11-13T04:17:43.954Z,3.72
2022-11-13T04:20:30.166Z,3.53
2022-11-13T04:23:17.893Z,4.13
2022-11-13T04:26:03.686Z,3.67
2022-11-13T04:28:49.854Z,4.18
2022-11-13T04:31:36.055Z,3.78
2022-11-13T04:34:21.856Z,4.40
2022-11-13T04:37:07.671Z,4.07
2022-11-13T04:39:53.271Z,3.33
2022-11-13T04:42:51.350Z,4.13
2022-11-13T04:45:37.366Z,3.85
2022-11-13T04:48:23.363Z,4.15
2022-11-13T04:51:09.212Z,3.75
2022-11-13T04:53:55.005Z,4.25
2022-11-13T04:56:41.043Z,3.85
2022-11-13T04:59:26.865Z,3.65
2022-11-13T05:02:12.785Z,4.20
2022-11-13T05:05:04.430Z,3.92
2022-11-13T05:07:51.409Z,4.40
2022-11-13T05:10:37.635Z,4.28
2022-11-13T05:13:23.102Z,4.07
2022-11-13T05:16:11.450Z,3.30
2022-11-13T05:18:58.131Z,4.20
2022-11-13T05:21:43.853Z,4.40
2022-11-13T05:24:29.823Z,5.20
2022-11-13T05:27:17.582Z,4.57
2022-11-13T05:30:03.998Z,4.15
2022-11-13T05:32:49.277Z,4.03
2022-11-13T05:35:35.367Z,4.82
2022-11-13T05:38:21.372Z,4.05
2022-11-13T05:41:09.443Z,3.88
2022-11-13T05:43:59.185Z,4.70
2022-11-13T05:46:45.681Z,4.30
2022-11-13T05:49:31.678Z,4.43
2022-11-13T05:52:17.231Z,4.57
2022-11-13T05:55:03.112Z,5.05
2022-11-13T05:57:48.687Z,4.05
2022-11-13T06:00:34.448Z,4.40
2022-11-13T06:03:20.555Z,3.88
2022-11-13T06:06:08.409Z,3.92
2022-11-13T06:08:55.760Z,3.70
2022-11-13T06:11:41.680Z,3.50
2022-11-13T06:14:27.631Z,3.55
2022-11-13T06:17:13.551Z,3.15
2022-11-13T06:19:59.550Z,3.75
2022-11-13T06:22:45.514Z,3.90
2022-11-13T06:25:31.379Z,3.95
2022-11-13T06:28:16.846Z,3.83
2022-11-13T06:31:07.761Z,4.20
2022-11-13T06:33:53.543Z,3.72
2022-11-13T06:36:39.223Z,4.18
2022-11-13T06:39:24.761Z,3.90
2022-11-13T06:42:11.073Z,3.90
2022-11-13T06:44:57.017Z,4.00
2022-11-13T06:47:42.585Z,3.85
2022-11-13T06:50:28.287Z,3.85
2022-11-13T06:53:14.581Z,3.40
2022-11-13T06:56:00.559Z,3.72
2022-11-13T06:58:46.343Z,3.58
2022-11-13T07:01:32.408Z,3.43
2022-11-13T07:04:17.906Z,3.67
2022-11-13T07:07:04.361Z,3.33
2022-11-13T07:09:50.243Z,3.75
2022-11-13T07:12:36.455Z,3.30
2022-11-13T07:15:22.228Z,3.80
2022-11-13T07:18:07.819Z,3.00
2022-11-13T07:20:53.680Z,3.58
2022-11-13T07:23:48.877Z,5.10
2022-11-13T07:26:34.711Z,4.40
2022-11-13T07:29:20.418Z,3.83
2022-11-13T07:32:06.578Z,2.97
2022-11-13T07:34:52.688Z,4.15
2022-11-13T07:37:38.545Z,4.57
2022-11-13T07:40:24.145Z,4.13
2022-11-13T07:43:09.900Z,4.32
2022-11-13T07:45:58.525Z,4.60
2022-11-13T07:48:44.330Z,4.40
2022-11-13T07:51:30.241Z,3.15
2022-11-13T07:54:16.222Z,3.05
2022-11-13T07:57:02.139Z,4.35
2022-11-13T07:59:48.129Z,3.92
2022-11-13T08:02:34.008Z,4.40
2022-11-13T08:05:20.244Z,3.92
2022-11-13T08:08:05.989Z,4.60
2022-11-13T08:10:54.544Z,4.78
2022-11-13T08:13:40.147Z,4.80
2022-11-13T08:16:26.437Z,4.95
2022-11-13T08:19:11.947Z,4.50
2022-11-13T08:21:57.544Z,4.22
2022-11-13T08:24:43.120Z,4.15
2022-11-13T08:27:32.242Z,4.30
2022-11-13T08:30:18.066Z,4.38
2022-11-13T08:33:04.197Z,4.22
2022-11-13T08:36:00.128Z,4.30
2022-11-13T08:38:46.159Z,4.35
2022-11-13T08:41:31.869Z,4.18
2022-11-13T08:44:17.792Z,3.78
2022-11-13T08:47:03.645Z,2.53
2022-11-13T08:49:49.694Z,4.28
2022-11-13T08:52:35.675Z,3.67
2022-11-13T08:55:21.268Z,3.70
2022-11-13T08:58:06.944Z,3.42
2022-11-13T09:00:52.813Z,3.42
2022-11-13T09:03:39.911Z,3.45
2022-11-13T09:06:26.058Z,3.33
2022-11-13T09:09:11.962Z,3.50
2022-11-13T09:11:58.149Z,3.03
2022-11-13T09:14:44.264Z,3.53
2022-11-13T09:17:30.115Z,3.67
2022-11-13T09:20:21.549Z,3.53
2022-11-13T09:23:09.232Z,2.90
2022-11-13T09:25:55.604Z,2.90
2022-11-13T09:28:41.304Z,3.45
2022-11-13T09:31:27.202Z,3.00
2022-11-13T09:34:13.206Z,3.30
2022-11-13T09:36:59.079Z,3.47
2022-11-13T09:39:44.723Z,2.80
2022-11-13T09:42:32.849Z,2.97
2022-11-13T09:45:18.545Z,3.38
2022-11-13T09:48:32.365Z,3.15
2022-11-13T09:51:38.476Z,3.10
2022-11-13T09:54:24.267Z,3.03
2022-11-13T09:57:10.438Z,3.25
2022-11-13T10:00:00.846Z,3.25
2022-11-13T10:03:08.350Z,2.78
2022-11-13T10:06:22.049Z,3.58
2022-11-13T10:09:53.267Z,3.17
2022-11-13T10:12:39.348Z,2.80
2022-11-13T10:15:26.639Z,2.97
2022-11-13T10:18:17.330Z,2.90
2022-11-13T10:21:23.278Z,2.75
2022-11-13T10:24:22.235Z,2.53
2022-11-13T10:27:13.430Z,2.70
2022-11-13T10:29:59.941Z,2.60
2022-11-13T10:32:46.587Z,2.90
2022-11-13T10:35:45.549Z,2.35
2022-11-13T10:38:50.238Z,3.40
2022-11-13T10:41:53.320Z,2.45
2022-11-13T10:44:40.997Z,2.75
2022-11-13T10:48:02.085Z,2.55
2022-11-13T10:50:37.726Z,2.90
2022-11-13T10:53:26.326Z,2.80
2022-11-13T10:56:35.747Z,3.10
2022-11-13T10:59:21.162Z,2.92
2022-11-13T11:02:25.194Z,3.00
2022-11-13T11:05:29.202Z,2.70
2022-11-13T11:08:15.618Z,2.80
2022-11-13T11:14:38.517Z,2.80
2022-11-13T11:17:34.926Z,2.10
2022-11-13T11:20:31.946Z,2.25
2022-11-13T11:23:17.461Z,2.45
2022-11-13T11:26:06.015Z,2.40
2022-11-13T11:28:51.936Z,2.58
2022-11-13T11:31:59.005Z,2.50
2022-11-13T11:34:56.269Z,2.15
2022-11-13T11:37:53.573Z,2.47
2022-11-13T11:40:54.044Z,2.78
2022-11-13T11:44:01.927Z,2.55
2022-11-13T11:46:47.887Z,2.20
2022-11-13T11:49:33.709Z,2.38
2022-11-13T11:52:38.117Z,2.70
2022-11-13T11:56:01.559Z,2.70
2022-11-13T11:58:47.268Z,2.47
2022-11-13T12:01:50.897Z,3.00
2022-11-13T12:05:02.069Z,2.35
2022-11-13T12:07:56.645Z,2.70
2022-11-13T12:11:07.225Z,2.45
2022-11-13T12:13:53.128Z,2.47
2022-11-13T12:16:39.013Z,2.33
2022-11-13T12:19:54.154Z,2.38
2022-11-13T12:22:43.649Z,2.70
2022-11-13T12:25:49.628Z,2.75
2022-11-13T12:28:54.186Z,2.50
2022-11-13T12:32:07.849Z,2.20
2022-11-13T12:34:58.342Z,2.08
2022-11-13T12:37:59.871Z,2.50
2022-11-13T12:40:48.248Z,2.50
2022-11-13T12:43:52.820Z,2.28
2022-11-13T12:46:40.498Z,2.45
2022-11-13T12:49:28.706Z,2.08
2022-11-13T12:52:20.782Z,1.80
2022-11-13T12:55:24.276Z,2.45
2022-11-13T12:58:26.080Z,2.22
2022-11-13T13:01:12.178Z,2.35
2022-11-13T13:03:58.078Z,2.45
2022-11-13T13:06:44.056Z,2.65
2022-11-13T13:09:51.793Z,2.45
2022-11-13T13:15:46.611Z,2.03
2022-11-13T13:18:33.392Z,2.38
2022-11-13T13:21:20.471Z,2.30
2022-11-13T13:24:27.396Z,2.13
2022-11-13T13:27:27.154Z,2.17
2022-11-13T13:30:20.542Z,2.40
2022-11-13T13:33:43.432Z,2.28
2022-11-13T13:36:43.388Z,2.30
2022-11-13T13:39:29.445Z,2.40
2022-11-13T13:42:25.918Z,2.30
2022-11-13T13:45:46.690Z,2.90
2022-11-13T13:48:32.671Z,2.30
2022-11-13T13:51:29.372Z,2.80
2022-11-13T13:54:22.273Z,2.20
2022-11-13T13:57:13.499Z,2.47
2022-11-13T13:59:59.556Z,2.80
2022-11-13T14:02:49.375Z,3.33
2022-11-13T14:05:36.779Z,3.08
2022-11-13T14:08:24.528Z,2.88
2022-11-13T14:11:36.274Z,3.10
2022-11-13T14:14:23.115Z,2.65
2022-11-13T14:17:10.816Z,3.17
2022-11-13T14:20:01.143Z,2.70
2022-11-13T14:22:55.251Z,2.95
2022-11-13T14:25:43.195Z,2.80
2022-11-13T14:28:32.145Z,3.00
2022-11-13T14:31:17.663Z,3.28
2022-11-13T14:34:10.312Z,3.45
2022-11-13T14:36:55.865Z,3.05
2022-11-13T14:39:47.343Z,2.90
2022-11-13T14:42:37.382Z,2.47
2022-11-13T14:45:25.438Z,2.60
2022-11-13T14:48:22.954Z,3.03
2022-11-13T14:51:26.737Z,3.40
2022-11-13T14:54:46.809Z,2.97
2022-11-13T14:57:35.043Z,2.90
2022-11-13T15:00:28.207Z,3.22
2022-11-13T15:03:14.188Z,3.78
2022-11-13T15:05:59.855Z,3.05
2022-11-13T15:08:46.889Z,3.20
2022-11-13T15:11:32.098Z,2.95
2022-11-13T15:14:19.467Z,3.05
2022-11-13T15:17:05.182Z,3.40
2022-11-13T15:19:53.860Z,3.42
2022-11-13T15:22:40.442Z,3.35
2022-11-13T15:28:12.140Z,3.08
2022-11-13T15:30:58.614Z,3.35
2022-11-13T15:33:43.919Z,3.97
2022-11-13T15:36:29.959Z,3.37
2022-11-13T15:39:23.347Z,3.58
2022-11-13T15:42:15.442Z,3.10
2022-11-13T15:45:02.206Z,3.17
2022-11-13T15:47:48.322Z,3.60
2022-11-13T15:50:34.241Z,4.07
2022-11-13T15:53:20.067Z,2.95
2022-11-13T15:56:06.322Z,2.80
2022-11-13T15:58:52.407Z,3.08
2022-11-13T16:01:39.015Z,3.42
2022-11-13T16:04:26.749Z,3.08
2022-11-13T16:07:29.230Z,2.58
2022-11-13T16:10:15.303Z,3.33
2022-11-13T16:13:00.526Z,2.95
2022-11-13T16:15:49.383Z,3.08
2022-11-13T16:18:34.947Z,2.83
2022-11-13T16:21:22.378Z,3.07
2022-11-13T16:24:11.140Z,3.10
2022-11-13T16:26:58.406Z,3.47
2022-11-13T16:29:44.527Z,3.75
2022-11-13T16:32:30.084Z,4.15
2022-11-13T16:35:17.392Z,31.00
2022-11-13T16:38:03.475Z,31.35
2022-11-13T16:40:49.183Z,15.30
2022-11-13T16:43:34.561Z,8.98
2022-11-13T16:46:20.622Z,6.55
2022-11-13T16:49:06.571Z,4.43
2022-11-13T16:51:53.567Z,4.40
2022-11-13T16:54:39.551Z,4.03
2022-11-13T16:57:25.605Z,3.60
2022-11-13T17:00:14.906Z,3.63
2022-11-13T17:03:00.894Z,3.30
2022-11-13T17:05:46.857Z,3.88
2022-11-13T17:08:32.343Z,3.95
2022-11-13T17:11:18.331Z,3.78
2022-11-13T17:14:03.948Z,3.28
2022-11-13T17:16:49.587Z,3.58
2022-11-13T17:19:35.847Z,3.85
2022-11-13T17:22:21.784Z,3.22
2022-11-13T17:25:07.756Z,3.58
2022-11-13T17:27:52.924Z,3.42
2022-11-13T17:30:38.994Z,3.83
2022-11-13T17:33:24.792Z,3.25
2022-11-13T17:36:11.038Z,4.55
2022-11-13T17:38:56.274Z,4.53
2022-11-13T17:41:42.409Z,3.97
2022-11-13T17:44:28.255Z,4.18
2022-11-13T17:47:14.350Z,4.45
2022-11-13T17:50:05.626Z,3.80
2022-11-13T17:52:52.980Z,3.80
2022-11-13T17:55:39.047Z,4.47
2022-11-13T17:58:25.854Z,5.30
2022-11-13T18:01:16.626Z,4.78
2022-11-13T18:04:02.668Z,4.93
2022-11-13T18:06:49.892Z,4.95
2022-11-13T18:09:36.056Z,4.25
2022-11-13T18:12:21.319Z,5.70
2022-11-13T18:15:08.045Z,5.00
2022-11-13T18:17:53.426Z,4.88
2022-11-13T18:20:40.985Z,4.20
2022-11-13T18:23:27.544Z,3.47
2022-11-13T18:26:16.622Z,3.20
2022-11-13T18:29:02.900Z,4.25
2022-11-13T18:31:49.050Z,5.47
2022-11-13T18:34:35.122Z,4.72
2022-11-13T18:37:20.982Z,4.22
2022-11-13T18:40:10.368Z,4.43
2022-11-13T18:42:59.523Z,4.18
2022-11-13T18:45:45.350Z,4.20
2022-11-13T18:48:32.957Z,4.68
2022-11-13T18:51:28.511Z,3.92
2022-11-13T18:54:14.977Z,4.45
2022-11-13T18:57:00.955Z,4.35
2022-11-13T18:59:46.827Z,4.85
2022-11-13T19:02:32.961Z,4.32
2022-11-13T19:05:18.984Z,3.92
2022-11-13T19:08:04.888Z,4.05
2022-11-13T19:10:50.205Z,4.20
2022-11-13T19:13:35.796Z,3.72
2022-11-13T19:16:28.422Z,3.63
2022-11-13T19:19:18.858Z,3.70
2022-11-13T19:22:05.233Z,4.97
2022-11-13T19:27:36.364Z,6.78
2022-11-13T19:30:22.006Z,7.45
2022-11-13T19:33:07.666Z,9.70
2022-11-13T19:35:55.235Z,10.27
2022-11-13T19:38:41.480Z,9.98
2022-11-13T19:41:28.648Z,8.93
2022-11-13T19:44:14.487Z,7.82
2022-11-13T19:47:00.536Z,5.38
2022-11-13T19:49:46.569Z,4.72
2022-11-13T19:52:32.469Z,6.13
2022-11-13T19:55:17.971Z,7.10
2022-11-13T19:58:03.265Z,7.43
2022-11-13T20:00:49.062Z,6.80
2022-11-13T20:03:36.237Z,6.47
2022-11-13T20:06:22.316Z,5.63
2022-11-13T20:09:08.267Z,4.80
2022-11-13T20:11:53.795Z,5.10
2022-11-13T20:14:40.093Z,5.20
2022-11-13T20:17:25.784Z,4.63
2022-11-13T20:20:11.933Z,5.07
2022-11-13T20:22:58.666Z,5.60
2022-11-13T20:25:52.111Z,5.03
2022-11-13T20:28:38.024Z,4.63
2022-11-13T20:31:25.194Z,5.13
2022-11-13T20:34:11.406Z,4.75
2022-11-13T20:36:56.868Z,4.18
2022-11-13T20:39:42.845Z,4.75
2022-11-13T20:42:28.869Z,5.25
2022-11-13T20:45:15.044Z,4.57
2022-11-13T20:48:00.863Z,5.32
2022-11-13T20:50:46.884Z,4.53
2022-11-13T20:53:32.594Z,4.60
2022-11-13T20:56:19.843Z,4.80
2022-11-13T20:59:07.565Z,4.25
2022-11-13T21:01:53.112Z,5.05
2022-11-13T21:04:39.070Z,4.63
2022-11-13T21:07:25.117Z,4.23
2022-11-13T21:10:10.910Z,4.85
2022-11-13T21:12:56.771Z,5.97
2022-11-13T21:15:42.852Z,5.82
2022-11-13T21:18:30.589Z,4.75
2022-11-13T21:21:21.718Z,5.20
2022-11-13T21:24:09.399Z,4.30
2022-11-13T21:26:55.201Z,4.00
2022-11-13T21:29:41.178Z,2.95
2022-11-13T21:32:27.395Z,3.90
2022-11-13T21:35:13.993Z,3.20
2022-11-13T21:37:59.962Z,3.25
2022-11-13T21:41:05.898Z,2.88
2022-11-13T21:44:04.506Z,3.00
2022-11-13T21:46:50.516Z,3.72
2022-11-13T21:52:24.808Z,2.78
2022-11-13T21:55:11.590Z,3.17
2022-11-13T21:57:57.660Z,2.95
2022-11-13T22:00:43.738Z,3.20
2022-11-13T22:03:30.015Z,3.58
2022-11-13T22:06:21.458Z,3.38
2022-11-13T22:09:19.083Z,3.55
2022-11-13T22:12:05.449Z,3.47
2022-11-13T22:14:51.006Z,3.50
2022-11-13T22:17:36.927Z,3.58
2022-11-13T22:20:25.004Z,3.35
2022-11-13T22:23:11.557Z,4.10
2022-11-13T22:26:11.442Z,3.67
2022-11-13T22:28:59.152Z,3.38
2022-11-13T22:31:45.158Z,3.22
2022-11-13T22:34:31.165Z,3.15
2022-11-13T22:37:16.672Z,2.88
2022-11-13T22:40:02.491Z,3.70
2022-11-13T22:42:48.435Z,3.83
2022-11-13T22:45:34.168Z,3.13
2022-11-13T22:48:19.875Z,3.90
2022-11-13T22:51:07.869Z,3.75
2022-11-13T22:53:55.965Z,3.67
2022-11-13T22:56:41.751Z,4.28
2022-11-13T22:59:26.958Z,3.77
2022-11-13T23:02:12.437Z,3.58
2022-11-13T23:04:58.330Z,3.65
2022-11-13T23:07:44.208Z,3.55
2022-11-13T23:10:30.244Z,3.80
2022-11-13T23:13:16.416Z,3.95
2022-11-13T23:16:02.608Z,3.95
2022-11-13T23:18:48.420Z,3.90
2022-11-13T23:21:33.938Z,3.67
2022-11-13T23:24:19.995Z,3.60
2022-11-13T23:27:05.605Z,3.65
2022-11-13T23:29:51.471Z,3.22
2022-11-13T23:32:37.261Z,3.60
2022-11-13T23:35:22.694Z,3.92
2022-11-13T23:38:08.783Z,3.88
2022-11-13T23:40:58.990Z,4.38
2022-11-13T23:44:07.792Z,4.78
2022-11-13T23:46:50.563Z,5.75
2022-11-13T23:49:36.197Z,6.78
2022-11-13T23:52:22.218Z,7.38
2022-11-13T23:55:08.671Z,8.38
2022-11-13T23:58:02.293Z,8.90
